createdAt,value
2017-04-15T00:00:58.653Z,3.88
2017-04-15T00:01:59.381Z,3.43
2017-04-15T00:02:59.928Z,4.50
2017-04-15T00:04:00.467Z,5.10
2017-04-15T00:05:00.930Z,4.08
2017-04-15T00:06:01.430Z,5.38
2017-04-15T00:07:01.813Z,4.63
2017-04-15T00:08:02.413Z,4.23
2017-04-15T00:09:02.825Z,4.35
2017-04-15T00:10:02.461Z,3.97
2017-04-15T00:11:02.794Z,4.82
2017-04-15T00:12:03.128Z,4.63
2017-04-15T00:13:03.378Z,4.95
2017-04-15T00:14:03.633Z,5.25
2017-04-15T00:15:03.931Z,4.45
2017-04-15T00:16:04.950Z,4.55
2017-04-15T00:17:04.500Z,5.23
2017-04-15T00:18:04.755Z,4.27
2017-04-15T00:19:04.276Z,4.67
2017-04-15T00:20:03.745Z,3.97
2017-04-15T00:21:04.201Z,3.58
2017-04-15T00:22:04.579Z,5.32
2017-04-15T00:23:04.877Z,5.02
2017-04-15T00:24:05.188Z,5.57
2017-04-15T00:25:05.517Z,4.27
2017-04-15T00:26:05.878Z,4.53
2017-04-15T00:27:06.197Z,4.63
2017-04-15T00:28:06.504Z,4.67
2017-04-15T00:29:06.735Z,4.17
2017-04-15T00:30:07.105Z,4.28
2017-04-15T00:31:07.345Z,3.63
2017-04-15T00:32:08.357Z,3.97
2017-04-15T00:33:08.564Z,3.72
2017-04-15T00:34:08.797Z,4.47
2017-04-15T00:35:09.197Z,4.07
2017-04-15T00:36:09.448Z,5.43
2017-04-15T00:37:09.955Z,5.18
2017-04-15T00:38:10.175Z,3.27
2017-04-15T00:39:10.405Z,4.48
2017-04-15T00:40:10.665Z,5.05
2017-04-15T00:41:10.951Z,4.65
2017-04-15T00:42:11.230Z,5.30
2017-04-15T00:43:11.481Z,4.43
2017-04-15T00:44:11.783Z,5.32
2017-04-15T00:45:12.013Z,5.50
2017-04-15T00:46:13.350Z,4.45
2017-04-15T00:47:13.638Z,5.55
2017-04-15T00:48:13.912Z,5.70
2017-04-15T00:49:14.381Z,5.30
2017-04-15T00:50:14.623Z,5.88
2017-04-15T00:51:16.061Z,4.17
2017-04-15T00:52:16.341Z,6.08
2017-04-15T00:53:17.103Z,4.23
2017-04-15T00:54:18.108Z,6.27
2017-04-15T00:55:18.334Z,6.50
2017-04-15T00:56:18.553Z,5.40
2017-04-15T00:57:18.825Z,5.72
2017-04-15T00:58:19.238Z,6.35
2017-04-15T00:59:19.503Z,6.00
2017-04-15T01:00:20.016Z,6.55
2017-04-15T01:01:21.302Z,6.63
2017-04-15T01:02:21.675Z,6.75
2017-04-15T01:03:22.822Z,7.05
2017-04-15T01:04:23.354Z,6.75
2017-04-15T01:05:23.594Z,6.30
2017-04-15T01:06:23.859Z,6.98
2017-04-15T01:07:24.133Z,6.95
2017-04-15T01:08:24.879Z,6.92
2017-04-15T01:09:25.104Z,6.93
2017-04-15T01:10:25.402Z,6.60
2017-04-15T01:11:25.814Z,5.87
2017-04-15T01:12:26.116Z,7.75
2017-04-15T01:13:26.359Z,4.33
2017-04-15T01:14:26.606Z,6.30
2017-04-15T01:15:26.897Z,5.58
2017-04-15T01:16:27.132Z,4.87
2017-04-15T01:17:28.157Z,6.20
2017-04-15T01:18:29.135Z,6.93
2017-04-15T01:19:29.354Z,5.47
2017-04-15T01:20:29.564Z,6.80
2017-04-15T01:21:29.781Z,6.88
2017-04-15T01:22:30.052Z,7.00
2017-04-15T01:23:30.286Z,7.38
2017-04-15T01:24:30.524Z,7.42
2017-04-15T01:25:30.754Z,7.62
2017-04-15T01:26:30.972Z,6.98
2017-04-15T01:27:31.253Z,7.08
2017-04-15T01:28:31.542Z,7.15
2017-04-15T01:29:31.821Z,7.60
2017-04-15T01:30:32.099Z,6.32
2017-04-15T01:31:33.334Z,8.03
2017-04-15T01:32:33.585Z,7.47
2017-04-15T01:33:33.818Z,7.25
2017-04-15T01:34:34.369Z,7.45
2017-04-15T01:35:34.606Z,8.23
2017-04-15T01:36:34.948Z,7.27
2017-04-15T01:37:35.225Z,8.60
2017-04-15T01:38:35.770Z,8.25
2017-04-15T01:39:36.019Z,7.43
2017-04-15T01:40:36.584Z,7.90
2017-04-15T01:41:36.885Z,5.55
2017-04-15T01:42:37.186Z,7.42
2017-04-15T01:43:37.438Z,6.58
2017-04-15T01:44:37.700Z,8.23
2017-04-15T01:45:38.018Z,7.42
2017-04-15T01:46:38.247Z,7.65
2017-04-15T01:47:38.605Z,7.97
2017-04-15T01:48:38.829Z,9.67
2017-04-15T01:49:39.273Z,9.23
2017-04-15T01:50:39.809Z,9.03
2017-04-15T01:51:40.099Z,8.22
2017-04-15T01:52:40.465Z,9.52
2017-04-15T01:53:40.718Z,9.30
2017-04-15T01:54:41.108Z,11.37
2017-04-15T01:55:41.389Z,10.37
2017-04-15T01:56:41.679Z,9.10
2017-04-15T01:57:42.326Z,9.22
2017-04-15T01:58:42.814Z,9.60
2017-04-15T01:59:43.093Z,10.40
2017-04-15T02:00:43.388Z,8.25
2017-04-15T02:01:43.887Z,9.15
2017-04-15T02:02:44.425Z,9.38
2017-04-15T02:03:44.653Z,9.03
2017-04-15T02:04:45.005Z,9.08
2017-04-15T02:05:45.356Z,10.85
2017-04-15T02:06:45.593Z,9.07
2017-04-15T02:07:45.952Z,10.23
2017-04-15T02:08:46.212Z,11.85
2017-04-15T02:09:46.488Z,10.85
2017-04-15T02:10:46.744Z,10.50
2017-04-15T02:11:47.006Z,10.23
2017-04-15T02:12:47.286Z,12.28
2017-04-15T02:13:47.538Z,10.45
2017-04-15T02:14:47.838Z,11.03
2017-04-15T02:15:48.062Z,8.92
2017-04-15T02:16:48.346Z,10.57
2017-04-15T02:17:48.671Z,10.82
2017-04-15T02:18:48.969Z,10.28
2017-04-15T02:19:49.205Z,10.28
2017-04-15T02:20:49.571Z,10.80
2017-04-15T02:21:49.851Z,10.47
2017-04-15T02:22:50.114Z,11.45
2017-04-15T02:23:50.621Z,10.85
2017-04-15T02:24:50.844Z,9.97
2017-04-15T02:25:51.069Z,10.63
2017-04-15T02:26:51.301Z,10.85
2017-04-15T02:27:51.548Z,12.18
2017-04-15T02:28:51.794Z,12.25
2017-04-15T02:29:52.127Z,11.78
2017-04-15T02:30:52.482Z,11.55
2017-04-15T02:31:52.802Z,11.95
2017-04-15T02:32:53.878Z,10.77
2017-04-15T02:33:54.094Z,12.33
2017-04-15T02:34:54.378Z,11.97
2017-04-15T02:35:54.730Z,11.07
2017-04-15T02:36:54.998Z,10.32
2017-04-15T02:37:55.270Z,11.03
2017-04-15T02:38:55.525Z,10.50
2017-04-15T02:39:55.849Z,12.80
2017-04-15T02:40:56.196Z,10.95
2017-04-15T02:41:56.446Z,10.40
2017-04-15T02:42:56.729Z,11.35
2017-04-15T02:43:57.185Z,10.38
2017-04-15T02:44:57.478Z,10.80
2017-04-15T02:45:57.797Z,11.85
2017-04-15T02:46:58.118Z,11.77
2017-04-15T02:47:58.390Z,10.32
2017-04-15T02:48:58.623Z,10.63
2017-04-15T02:49:58.885Z,10.98
2017-04-15T02:50:59.155Z,10.53
2017-04-15T02:51:59.393Z,10.63
2017-04-15T02:52:59.658Z,8.88
2017-04-15T02:53:59.898Z,10.23
2017-04-15T02:55:00.373Z,9.60
2017-04-15T02:56:00.762Z,12.75
2017-04-15T02:57:01.157Z,12.78
2017-04-15T02:58:01.417Z,11.17
2017-04-15T02:59:01.911Z,10.03
2017-04-15T03:00:02.359Z,9.62
2017-04-15T03:01:02.645Z,11.27
2017-04-15T03:02:03.283Z,10.60
2017-04-15T03:03:03.741Z,10.52
2017-04-15T03:04:04.274Z,11.95
2017-04-15T03:05:05.221Z,10.37
2017-04-15T03:06:05.460Z,10.87
2017-04-15T03:07:05.688Z,10.65
2017-04-15T03:08:05.922Z,11.55
2017-04-15T03:09:07.056Z,10.02
2017-04-15T03:10:07.346Z,10.98
2017-04-15T03:11:07.588Z,12.25
2017-04-15T03:12:07.882Z,10.80
2017-04-15T03:13:08.174Z,10.43
2017-04-15T03:14:08.421Z,10.55
2017-04-15T03:15:09.600Z,10.55
2017-04-15T03:16:09.876Z,12.67
2017-04-15T03:17:10.127Z,10.40
2017-04-15T03:18:10.376Z,11.00
2017-04-15T03:19:10.904Z,8.40
2017-04-15T03:20:11.121Z,11.62
2017-04-15T03:21:11.357Z,10.52
2017-04-15T03:22:11.757Z,10.40
2017-04-15T03:23:12.251Z,11.10
2017-04-15T03:24:12.758Z,13.33
2017-04-15T03:25:13.017Z,10.08
2017-04-15T03:26:13.221Z,10.53
2017-04-15T03:27:13.520Z,11.80
2017-04-15T03:28:13.793Z,11.58
2017-04-15T03:29:14.038Z,11.47
2017-04-15T03:30:14.278Z,11.42
2017-04-15T03:31:15.629Z,9.02
2017-04-15T03:32:15.903Z,9.68
2017-04-15T03:33:16.618Z,8.65
2017-04-15T03:34:17.036Z,10.80
2017-04-15T03:35:17.557Z,9.95
2017-04-15T03:36:17.838Z,10.23
2017-04-15T03:37:18.793Z,11.48
2017-04-15T03:38:19.209Z,11.77
2017-04-15T03:39:19.671Z,8.97
2017-04-15T03:40:19.909Z,11.70
2017-04-15T03:41:20.147Z,11.92
2017-04-15T03:42:20.569Z,10.72
2017-04-15T03:43:20.889Z,10.40
2017-04-15T03:44:21.234Z,10.70
2017-04-15T03:45:21.616Z,12.75
2017-04-15T03:46:21.866Z,9.97
2017-04-15T03:47:22.178Z,13.75
2017-04-15T03:48:22.923Z,11.50
2017-04-15T03:49:23.298Z,10.95
2017-04-15T03:50:23.918Z,11.20
2017-04-15T03:51:24.422Z,8.77
2017-04-15T03:52:24.725Z,11.08
2017-04-15T03:53:25.074Z,9.75
2017-04-15T03:54:25.348Z,9.72
2017-04-15T03:55:25.585Z,12.13
2017-04-15T03:56:26.730Z,9.25
2017-04-15T03:57:26.943Z,10.58
2017-04-15T03:58:27.468Z,8.95
2017-04-15T03:59:27.792Z,9.70
2017-04-15T04:00:28.051Z,10.30
2017-04-15T04:01:28.333Z,11.22
2017-04-15T04:02:28.674Z,9.88
2017-04-15T04:03:29.109Z,10.08
2017-04-15T04:04:29.376Z,10.78
2017-04-15T04:05:29.646Z,9.08
2017-04-15T04:06:29.885Z,10.23
2017-04-15T04:07:30.141Z,9.65
2017-04-15T04:08:30.545Z,9.88
2017-04-15T04:09:30.770Z,10.60
2017-04-15T04:10:31.054Z,9.77
2017-04-15T04:11:31.322Z,9.88
2017-04-15T04:12:32.311Z,10.03
2017-04-15T04:13:32.796Z,8.55
2017-04-15T04:14:33.040Z,9.97
2017-04-15T04:15:33.290Z,10.12
2017-04-15T04:16:33.517Z,11.90
2017-04-15T04:17:35.252Z,7.53
2017-04-15T04:18:35.778Z,9.15
2017-04-15T04:19:36.036Z,10.22
2017-04-15T04:20:36.265Z,9.70
2017-04-15T04:21:36.474Z,8.80
2017-04-15T04:22:36.685Z,8.43
2017-04-15T04:23:36.948Z,9.18
2017-04-15T04:24:37.146Z,9.93
2017-04-15T04:25:37.411Z,10.37
2017-04-15T04:26:37.619Z,10.00
2017-04-15T04:27:37.985Z,10.52
2017-04-15T04:28:38.293Z,11.63
2017-04-15T04:29:38.482Z,9.50
2017-04-15T04:30:38.704Z,10.85
2017-04-15T04:31:38.903Z,10.17
2017-04-15T04:32:39.130Z,9.17
2017-04-15T04:33:39.668Z,10.32
2017-04-15T04:34:39.889Z,10.52
2017-04-15T04:35:40.122Z,11.60
2017-04-15T04:36:40.342Z,10.28
2017-04-15T04:37:40.839Z,10.43
2017-04-15T04:38:41.293Z,10.00
2017-04-15T04:39:41.982Z,10.33
2017-04-15T04:40:42.242Z,10.37
2017-04-15T04:41:43.000Z,10.22
2017-04-15T04:42:43.688Z,9.98
2017-04-15T04:43:44.410Z,11.52
2017-04-15T04:44:44.753Z,11.40
2017-04-15T04:45:45.078Z,11.00
2017-04-15T04:46:45.602Z,11.28
2017-04-15T04:47:45.972Z,11.35
2017-04-15T04:48:46.363Z,11.58
2017-04-15T04:49:46.608Z,10.70
2017-04-15T04:50:46.829Z,10.47
2017-04-15T04:51:47.090Z,11.00
2017-04-15T04:52:48.041Z,10.42
2017-04-15T04:53:48.298Z,11.65
2017-04-15T04:54:48.529Z,11.68
2017-04-15T04:55:48.744Z,10.20
2017-04-15T04:56:48.972Z,10.45
2017-04-15T04:57:49.976Z,9.28
2017-04-15T04:58:50.309Z,11.10
2017-04-15T04:59:50.513Z,10.40
2017-04-15T05:00:50.735Z,10.73
2017-04-15T05:01:50.954Z,8.85
2017-04-15T05:02:51.189Z,9.77
2017-04-15T05:03:51.530Z,10.37
2017-04-15T05:04:51.733Z,10.78
2017-04-15T05:05:51.936Z,11.27
2017-04-15T05:06:52.241Z,9.35
2017-04-15T05:07:53.215Z,10.40
2017-04-15T05:08:53.793Z,10.17
2017-04-15T05:09:54.004Z,11.45
2017-04-15T05:10:54.259Z,9.03
2017-04-15T05:11:54.499Z,9.95
2017-04-15T05:12:54.886Z,10.35
2017-04-15T05:13:55.167Z,10.18
2017-04-15T05:14:55.422Z,12.13
2017-04-15T05:15:55.646Z,11.37
2017-04-15T05:16:55.983Z,9.20
2017-04-15T05:17:56.231Z,10.87
2017-04-15T05:18:56.527Z,10.38
2017-04-15T05:19:56.805Z,11.43
2017-04-15T05:20:57.129Z,11.05
2017-04-15T05:21:57.384Z,11.03
2017-04-15T05:22:57.608Z,11.63
2017-04-15T05:23:57.871Z,10.85
2017-04-15T05:24:58.821Z,11.03
2017-04-15T05:25:59.109Z,11.25
2017-04-15T05:26:59.339Z,11.68
2017-04-15T05:27:59.575Z,9.65
2017-04-15T05:28:59.943Z,9.80
2017-04-15T05:30:00.153Z,10.77
2017-04-15T05:31:00.578Z,11.15
2017-04-15T05:32:00.811Z,10.88
2017-04-15T05:33:01.122Z,12.12
2017-04-15T05:34:02.448Z,9.40
2017-04-15T05:35:02.692Z,11.92
2017-04-15T05:36:02.901Z,11.28
2017-04-15T05:37:03.349Z,12.65
2017-04-15T05:38:03.802Z,9.63
2017-04-15T05:39:04.765Z,11.65
2017-04-15T05:40:05.014Z,10.42
2017-04-15T05:41:05.307Z,11.40
2017-04-15T05:42:05.699Z,10.72
2017-04-15T05:43:05.946Z,10.88
2017-04-15T05:44:06.217Z,10.08
2017-04-15T05:45:06.790Z,12.32
2017-04-15T05:46:07.025Z,11.72
2017-04-15T05:47:07.255Z,10.07
2017-04-15T05:48:07.568Z,12.27
2017-04-15T05:49:07.059Z,10.92
2017-04-15T05:50:07.280Z,11.43
2017-04-15T05:51:06.746Z,11.57
2017-04-15T05:52:07.025Z,10.23
2017-04-15T05:53:07.254Z,11.67
2017-04-15T05:54:07.586Z,11.98
2017-04-15T05:55:07.833Z,12.83
2017-04-15T05:56:08.094Z,13.03
2017-04-15T05:57:08.474Z,11.52
2017-04-15T05:58:08.708Z,12.87
2017-04-15T05:59:08.984Z,12.12
2017-04-15T06:00:09.265Z,11.50
2017-04-15T06:01:09.481Z,12.43
2017-04-15T06:02:09.711Z,10.65
2017-04-15T06:03:09.983Z,12.08
2017-04-15T06:04:10.292Z,10.83
2017-04-15T06:05:10.518Z,11.12
2017-04-15T06:06:10.771Z,10.92
2017-04-15T06:07:11.890Z,10.77
2017-04-15T06:08:12.113Z,10.18
2017-04-15T06:09:13.166Z,11.43
2017-04-15T06:10:13.419Z,10.68
2017-04-15T06:11:13.757Z,12.45
2017-04-15T06:12:13.986Z,11.85
2017-04-15T06:13:14.219Z,10.08
2017-04-15T06:14:14.487Z,12.55
2017-04-15T06:15:14.724Z,11.15
2017-04-15T06:16:14.973Z,12.22
2017-04-15T06:17:15.197Z,12.30
2017-04-15T06:18:15.533Z,11.23
2017-04-15T06:19:16.158Z,12.70
2017-04-15T06:20:16.453Z,11.28
2017-04-15T06:21:16.694Z,11.93
2017-04-15T06:22:16.920Z,10.45
2017-04-15T06:23:17.306Z,11.43
2017-04-15T06:24:17.627Z,11.18
2017-04-15T06:25:18.890Z,11.37
2017-04-15T06:26:19.137Z,11.68
2017-04-15T06:27:19.598Z,9.58
2017-04-15T06:28:19.844Z,11.90
2017-04-15T06:29:20.519Z,10.30
2017-04-15T06:30:20.741Z,12.30
2017-04-15T06:31:21.917Z,10.78
2017-04-15T06:32:22.209Z,10.22
2017-04-15T06:33:22.465Z,11.90
2017-04-15T06:34:23.048Z,10.57
2017-04-15T06:35:23.328Z,12.67
2017-04-15T06:36:23.583Z,11.00
2017-04-15T06:37:23.975Z,11.57
2017-04-15T06:38:24.496Z,10.70
2017-04-15T06:39:25.255Z,10.97
2017-04-15T06:40:25.682Z,12.23
2017-04-15T06:41:26.162Z,9.87
2017-04-15T06:42:26.438Z,11.00
2017-04-15T06:43:27.497Z,11.05
2017-04-15T06:44:27.926Z,9.93
2017-04-15T06:45:28.304Z,10.35
2017-04-15T06:46:28.599Z,10.13
2017-04-15T06:47:28.889Z,10.02
2017-04-15T06:48:29.195Z,10.20
2017-04-15T06:49:29.523Z,10.13
2017-04-15T06:50:29.902Z,9.52
2017-04-15T06:51:30.146Z,10.18
2017-04-15T06:52:30.386Z,8.83
2017-04-15T06:53:30.630Z,9.63
2017-04-15T06:54:31.001Z,10.57
2017-04-15T06:55:31.262Z,11.83
2017-04-15T06:56:31.502Z,9.65
2017-04-15T06:57:31.789Z,9.98
2017-04-15T06:58:31.273Z,9.55
2017-04-15T06:59:31.553Z,10.55
2017-04-15T07:00:31.848Z,9.62
2017-04-15T07:01:32.167Z,9.82
2017-04-15T07:02:32.523Z,9.35
2017-04-15T07:03:32.801Z,10.82
2017-04-15T07:04:33.158Z,10.25
2017-04-15T07:05:33.401Z,10.72
2017-04-15T07:06:33.657Z,9.73
2017-04-15T07:07:33.919Z,10.75
2017-04-15T07:08:35.474Z,11.33
2017-04-15T07:09:35.802Z,10.33
2017-04-15T07:10:36.250Z,10.72
2017-04-15T07:11:36.581Z,11.00
2017-04-15T07:12:36.925Z,9.92
2017-04-15T07:13:37.253Z,10.28
2017-04-15T07:14:37.524Z,10.63
2017-04-15T07:15:37.777Z,10.62
2017-04-15T07:16:38.022Z,10.37
2017-04-15T07:17:38.283Z,10.35
2017-04-15T07:18:38.518Z,9.65
2017-04-15T07:19:38.867Z,10.65
2017-04-15T07:20:39.168Z,10.52
2017-04-15T07:21:39.423Z,10.75
2017-04-15T07:22:39.845Z,9.88
2017-04-15T07:23:40.090Z,11.17
2017-04-15T07:24:40.491Z,9.93
2017-04-15T07:25:40.730Z,10.83
2017-04-15T07:26:40.949Z,9.28
2017-04-15T07:27:41.225Z,9.22
2017-04-15T07:28:41.509Z,11.10
2017-04-15T07:29:41.799Z,8.85
2017-04-15T07:30:42.067Z,10.27
2017-04-15T07:31:42.385Z,9.58
2017-04-15T07:32:42.662Z,9.48
2017-04-15T07:33:42.899Z,9.43
2017-04-15T07:34:43.541Z,9.10
2017-04-15T07:35:44.025Z,8.07
2017-04-15T07:36:44.377Z,9.87
2017-04-15T07:37:45.097Z,9.40
2017-04-15T07:38:45.431Z,9.28
2017-04-15T07:39:45.885Z,11.90
2017-04-15T07:40:46.353Z,8.82
2017-04-15T07:41:47.078Z,8.95
2017-04-15T07:42:47.330Z,9.77
2017-04-15T07:43:47.601Z,9.05
2017-04-15T07:44:47.882Z,8.75
2017-04-15T07:45:48.330Z,10.18
2017-04-15T07:46:48.653Z,11.22
2017-04-15T07:47:48.949Z,9.42
2017-04-15T07:48:49.223Z,8.27
2017-04-15T07:49:49.502Z,8.42
2017-04-15T07:50:49.769Z,9.03
2017-04-15T07:51:49.236Z,8.60
2017-04-15T07:52:49.477Z,9.45
2017-04-15T07:53:49.753Z,7.65
2017-04-15T07:54:50.033Z,9.72
2017-04-15T07:55:50.269Z,9.33
2017-04-15T07:56:50.606Z,9.03
2017-04-15T07:57:50.882Z,8.45
2017-04-15T07:58:52.007Z,8.17
2017-04-15T07:59:52.403Z,9.28
2017-04-15T08:00:52.617Z,8.92
2017-04-15T08:01:52.881Z,8.90
2017-04-15T08:02:53.150Z,9.02
2017-04-15T08:03:53.444Z,8.27
2017-04-15T08:04:54.084Z,8.12
2017-04-15T08:05:53.582Z,8.27
2017-04-15T08:06:53.821Z,7.82
2017-04-15T08:07:54.062Z,7.82
2017-04-15T08:08:54.281Z,8.20
2017-04-15T08:09:54.648Z,7.95
2017-04-15T08:10:54.985Z,8.05
2017-04-15T08:11:55.206Z,7.95
2017-04-15T08:12:55.573Z,8.50
2017-04-15T08:13:56.226Z,7.03
2017-04-15T08:14:56.573Z,8.65
2017-04-15T08:15:56.815Z,7.33
2017-04-15T08:16:57.102Z,7.68
2017-04-15T08:17:57.376Z,7.67
2017-04-15T08:18:57.812Z,7.60
2017-04-15T08:19:58.122Z,7.58
2017-04-15T08:20:58.393Z,7.52
2017-04-15T08:21:58.645Z,6.98
2017-04-15T08:22:58.860Z,7.17
2017-04-15T08:23:59.113Z,6.60
2017-04-15T08:24:59.786Z,7.50
2017-04-15T08:26:00.173Z,6.22
2017-04-15T08:27:01.157Z,6.60
2017-04-15T08:28:01.362Z,6.40
2017-04-15T08:29:01.626Z,6.57
2017-04-15T08:30:02.701Z,6.08
2017-04-15T08:31:03.258Z,6.13
2017-04-15T08:32:03.508Z,6.22
2017-04-15T08:33:03.793Z,6.20
2017-04-15T08:34:04.191Z,5.42
2017-04-15T08:35:04.475Z,6.30
2017-04-15T08:36:05.060Z,6.62
2017-04-15T08:37:05.491Z,6.08
2017-04-15T08:38:05.961Z,4.85
2017-04-15T08:39:07.041Z,5.72
2017-04-15T08:40:07.561Z,5.78
2017-04-15T08:41:07.786Z,5.35
2017-04-15T08:42:08.087Z,5.22
2017-04-15T08:43:08.337Z,4.98
2017-04-15T08:44:08.644Z,4.80
2017-04-15T08:45:08.961Z,4.75
2017-04-15T08:46:09.185Z,5.15
2017-04-15T08:47:09.426Z,5.70
2017-04-15T08:48:09.818Z,4.85
2017-04-15T08:49:10.060Z,5.05
2017-04-15T08:50:10.399Z,4.65
2017-04-15T08:51:10.718Z,5.13
2017-04-15T08:52:11.286Z,4.45
2017-04-15T08:53:12.281Z,4.60
2017-04-15T08:54:13.307Z,5.10
2017-04-15T08:55:13.731Z,4.00
2017-04-15T08:56:14.065Z,4.70
2017-04-15T08:57:14.413Z,4.68
2017-04-15T08:58:14.842Z,4.47
2017-04-15T08:59:15.258Z,4.65
2017-04-15T09:00:15.686Z,4.17
2017-04-15T09:01:15.905Z,4.13
2017-04-15T09:02:16.204Z,4.23
2017-04-15T09:03:16.540Z,4.52
2017-04-15T09:04:16.848Z,4.47
2017-04-15T09:05:17.190Z,4.25
2017-04-15T09:06:17.405Z,4.45
2017-04-15T09:07:17.742Z,4.68
2017-04-15T09:08:17.993Z,4.42
2017-04-15T09:09:18.347Z,4.58
2017-04-15T09:10:18.615Z,3.50
2017-04-15T09:11:19.462Z,3.90
2017-04-15T09:12:19.736Z,3.45
2017-04-15T09:13:20.102Z,4.48
2017-04-15T09:14:20.356Z,4.30
2017-04-15T09:15:21.745Z,3.75
2017-04-15T09:16:21.997Z,3.87
2017-04-15T09:17:22.713Z,3.83
2017-04-15T09:18:22.957Z,3.68
2017-04-15T09:19:23.231Z,3.75
2017-04-15T09:20:23.619Z,3.30
2017-04-15T09:21:25.629Z,2.87
2017-04-15T09:22:25.949Z,3.63
2017-04-15T09:23:26.437Z,3.90
2017-04-15T09:24:27.253Z,3.50
2017-04-15T09:25:27.110Z,3.33
2017-04-15T09:26:26.955Z,3.42
2017-04-15T09:27:27.962Z,3.23
2017-04-15T09:28:28.234Z,3.73
2017-04-15T09:29:28.545Z,2.92
2017-04-15T09:30:28.864Z,3.18
2017-04-15T09:31:29.101Z,3.58
2017-04-15T09:32:29.390Z,3.78
2017-04-15T09:33:29.625Z,3.53
2017-04-15T09:34:30.007Z,3.30
2017-04-15T09:35:30.285Z,3.03
2017-04-15T09:36:30.526Z,3.50
2017-04-15T09:37:32.106Z,3.07
2017-04-15T09:38:32.663Z,3.00
2017-04-15T09:39:32.876Z,3.13
2017-04-15T09:40:33.127Z,3.90
2017-04-15T09:41:33.380Z,3.12
2017-04-15T09:42:33.647Z,3.32
2017-04-15T09:43:33.906Z,2.62
2017-04-15T09:44:34.129Z,3.37
2017-04-15T09:45:34.389Z,2.68
2017-04-15T09:46:34.621Z,2.80
2017-04-15T09:47:35.198Z,3.43
2017-04-15T09:48:35.422Z,2.85
2017-04-15T09:49:35.785Z,3.12
2017-04-15T09:50:36.033Z,3.47
2017-04-15T09:51:36.310Z,3.42
2017-04-15T09:52:36.646Z,2.85
2017-04-15T09:53:36.882Z,3.12
2017-04-15T09:54:37.149Z,3.47
2017-04-15T09:55:37.478Z,2.98
2017-04-15T09:56:37.749Z,2.80
2017-04-15T09:57:38.018Z,3.08
2017-04-15T09:58:38.253Z,2.98
2017-04-15T09:59:38.534Z,3.05
2017-04-15T10:00:38.813Z,2.45
2017-04-15T10:01:39.041Z,2.05
2017-04-15T10:02:39.363Z,2.73
2017-04-15T10:03:39.622Z,2.55
2017-04-15T10:04:39.844Z,2.63
2017-04-15T10:05:40.105Z,2.57
2017-04-15T10:06:40.622Z,1.98
2017-04-15T10:07:40.862Z,2.23
2017-04-15T10:08:41.281Z,1.88
2017-04-15T10:09:41.565Z,2.33
2017-04-15T10:10:41.885Z,2.57
2017-04-15T10:11:42.089Z,2.00
2017-04-15T10:12:42.321Z,2.18
2017-04-15T10:13:42.553Z,1.93
2017-04-15T10:14:42.823Z,1.55
2017-04-15T10:15:43.790Z,1.70
2017-04-15T10:16:44.065Z,1.98
2017-04-15T10:17:44.278Z,1.83
2017-04-15T10:18:44.543Z,2.40
2017-04-15T10:19:44.980Z,2.22
2017-04-15T10:20:45.229Z,1.88
2017-04-15T10:21:46.042Z,2.00
2017-04-15T10:22:46.534Z,2.10
2017-04-15T10:23:47.003Z,2.52
2017-04-15T10:24:47.420Z,2.03
2017-04-15T10:25:47.989Z,2.05
2017-04-15T10:26:48.221Z,1.75
2017-04-15T10:27:48.440Z,1.88
2017-04-15T10:28:48.641Z,1.58
2017-04-15T10:29:48.874Z,2.17
2017-04-15T10:30:49.238Z,2.15
2017-04-15T10:31:49.789Z,2.45
2017-04-15T10:32:50.034Z,2.13
2017-04-15T10:33:50.241Z,2.23
2017-04-15T10:34:50.553Z,2.25
2017-04-15T10:35:51.193Z,2.28
2017-04-15T10:36:51.608Z,2.10
2017-04-15T10:37:52.861Z,2.30
2017-04-15T10:38:53.149Z,2.03
2017-04-15T10:39:53.370Z,2.80
2017-04-15T10:40:53.624Z,2.67
2017-04-15T10:41:53.845Z,2.70
2017-04-15T10:42:54.081Z,2.37
2017-04-15T10:43:54.353Z,2.85
2017-04-15T10:44:54.593Z,3.43
2017-04-15T10:45:55.085Z,3.18
2017-04-15T10:46:55.325Z,3.52
2017-04-15T10:47:55.617Z,3.93
2017-04-15T10:48:55.865Z,2.72
2017-04-15T10:49:56.234Z,3.75
2017-04-15T10:50:56.581Z,3.50
2017-04-15T10:51:56.891Z,3.87
2017-04-15T10:52:57.179Z,3.27
2017-04-15T10:53:57.546Z,3.43
2017-04-15T10:54:57.832Z,4.52
2017-04-15T10:55:58.168Z,2.60
2017-04-15T10:56:58.521Z,8.87
2017-04-15T10:57:58.809Z,5.80
2017-04-15T10:58:59.077Z,3.00
2017-04-15T10:59:59.307Z,31.05
2017-04-15T11:00:59.782Z,16.02
2017-04-15T11:02:00.098Z,11.32
2017-04-15T11:03:00.370Z,3.97
2017-04-15T11:04:00.632Z,2.37
2017-04-15T11:05:00.898Z,2.43
2017-04-15T11:06:01.205Z,3.15
2017-04-15T11:07:01.480Z,2.38
2017-04-15T11:08:01.809Z,2.10
2017-04-15T11:09:02.061Z,3.93
2017-04-15T11:10:02.476Z,2.25
2017-04-15T11:11:02.802Z,1.98
2017-04-15T11:12:03.070Z,2.83
2017-04-15T11:13:02.562Z,2.47
2017-04-15T11:14:02.873Z,2.15
2017-04-15T11:15:03.192Z,1.85
2017-04-15T11:16:03.458Z,2.12
2017-04-15T11:17:03.718Z,2.60
2017-04-15T11:18:03.987Z,5.27
2017-04-15T11:19:04.285Z,6.05
2017-04-15T11:20:04.593Z,2.65
2017-04-15T11:21:04.925Z,5.23
2017-04-15T11:22:05.205Z,3.87
2017-04-15T11:23:05.594Z,3.83
2017-04-15T11:24:06.914Z,2.45
2017-04-15T11:25:07.333Z,2.07
2017-04-15T11:26:08.008Z,2.13
2017-04-15T11:27:08.315Z,1.80
2017-04-15T11:28:08.703Z,2.48
2017-04-15T11:29:08.976Z,1.97
2017-04-15T11:30:09.225Z,2.07
2017-04-15T11:31:09.556Z,2.10
2017-04-15T11:32:09.813Z,2.02
2017-04-15T11:33:10.154Z,1.85
2017-04-15T11:34:10.410Z,1.95
2017-04-15T11:35:10.821Z,1.52
2017-04-15T11:36:11.094Z,1.87
2017-04-15T11:37:12.115Z,1.98
2017-04-15T11:38:12.359Z,1.80
2017-04-15T11:39:12.647Z,28.15
2017-04-15T11:40:12.888Z,6.97
2017-04-15T11:41:13.170Z,3.75
2017-04-15T11:42:13.411Z,1.73
2017-04-15T11:43:13.909Z,2.20
2017-04-15T11:44:14.131Z,1.90
2017-04-15T11:45:14.377Z,1.90
2017-04-15T11:46:14.685Z,1.48
2017-04-15T11:47:14.977Z,2.07
2017-04-15T11:48:15.369Z,1.97
2017-04-15T11:49:15.664Z,1.83
2017-04-15T11:50:15.913Z,2.00
2017-04-15T11:51:16.181Z,1.40
2017-04-15T11:52:16.477Z,1.73
2017-04-15T11:53:16.709Z,1.78
2017-04-15T11:54:17.035Z,1.65
2017-04-15T11:55:17.282Z,2.00
2017-04-15T11:56:17.669Z,1.45
2017-04-15T11:57:18.010Z,1.70
2017-04-15T11:58:18.250Z,1.93
2017-04-15T11:59:18.541Z,1.70
2017-04-15T12:00:18.818Z,1.58
2017-04-15T12:01:19.162Z,1.17
2017-04-15T12:02:19.381Z,1.40
2017-04-15T12:03:19.617Z,1.72
2017-04-15T12:04:19.860Z,1.45
2017-04-15T12:05:20.122Z,1.78
2017-04-15T12:06:20.416Z,1.65
2017-04-15T12:07:20.669Z,1.28
2017-04-15T12:08:20.930Z,1.33
2017-04-15T12:09:21.531Z,1.62
2017-04-15T12:10:21.861Z,1.65
2017-04-15T12:11:22.301Z,1.47
2017-04-15T12:12:22.787Z,1.38
2017-04-15T12:13:23.683Z,1.67
2017-04-15T12:14:23.225Z,1.80
2017-04-15T12:15:23.859Z,1.57
2017-04-15T12:16:24.242Z,1.47
2017-04-15T12:17:25.085Z,1.05
2017-04-15T12:18:25.367Z,1.62
2017-04-15T12:19:26.451Z,1.90
2017-04-15T12:20:26.768Z,1.45
2017-04-15T12:21:27.222Z,1.23
2017-04-15T12:22:27.605Z,1.40
2017-04-15T12:23:28.107Z,1.67
2017-04-15T12:24:28.670Z,1.88
2017-04-15T12:25:29.174Z,1.62
2017-04-15T12:26:29.485Z,1.43
2017-04-15T12:27:29.817Z,1.63
2017-04-15T12:28:30.042Z,1.70
2017-04-15T12:29:30.468Z,2.10
2017-04-15T12:30:30.779Z,1.57
2017-04-15T12:31:31.317Z,2.03
2017-04-15T12:32:30.818Z,1.62
2017-04-15T12:33:31.064Z,1.55
2017-04-15T12:34:31.334Z,1.52
2017-04-15T12:35:31.581Z,2.02
2017-04-15T12:36:31.877Z,2.00
2017-04-15T12:37:32.185Z,1.53
2017-04-15T12:38:32.713Z,1.83
2017-04-15T12:39:33.340Z,1.55
2017-04-15T12:40:33.577Z,1.50
2017-04-15T12:41:33.882Z,1.53
2017-04-15T12:42:34.212Z,1.77
2017-04-15T12:43:34.462Z,1.93
2017-04-15T12:44:33.961Z,2.03
2017-04-15T12:45:33.455Z,1.95
2017-04-15T12:46:33.765Z,1.75
2017-04-15T12:47:33.343Z,1.60
2017-04-15T12:48:33.598Z,1.35
2017-04-15T12:49:35.232Z,1.93
2017-04-15T12:50:35.518Z,1.58
2017-04-15T12:51:35.829Z,1.55
2017-04-15T12:52:36.092Z,1.48
2017-04-15T12:53:36.516Z,2.05
2017-04-15T12:54:36.773Z,1.67
2017-04-15T12:55:37.085Z,1.63
2017-04-15T12:56:36.741Z,1.83
2017-04-15T12:57:37.009Z,1.83
2017-04-15T12:58:36.498Z,2.10
2017-04-15T12:59:36.769Z,1.88
2017-04-15T13:00:37.041Z,1.77
2017-04-15T13:01:37.342Z,2.02
2017-04-15T13:02:37.607Z,1.98
2017-04-15T13:03:37.856Z,1.78
2017-04-15T13:04:37.350Z,1.92
2017-04-15T13:05:36.834Z,1.75
2017-04-15T13:06:37.129Z,2.10
2017-04-15T13:07:37.380Z,1.80
2017-04-15T13:08:37.839Z,1.90
2017-04-15T13:09:38.138Z,2.87
2017-04-15T13:10:38.447Z,2.23
2017-04-15T13:11:38.842Z,1.92
2017-04-15T13:12:39.074Z,2.32
2017-04-15T13:13:39.317Z,1.85
2017-04-15T13:14:39.595Z,1.83